createdAt,value
2022-08-14T00:01:09.997Z,16.87
2022-08-14T00:03:38.557Z,18.13
2022-08-14T00:06:14.079Z,22.97
2022-08-14T00:08:52.576Z,14.93
2022-08-14T00:11:19.740Z,15.97
2022-08-14T00:13:52.451Z,17.93
2022-08-14T00:16:41.107Z,15.83
2022-08-14T00:19:21.176Z,15.10
2022-08-14T00:21:50.795Z,18.37
2022-08-14T00:24:28.636Z,14.33
2022-08-14T00:27:02.165Z,17.77
2022-08-14T00:29:39.857Z,14.87
2022-08-14T00:32:50.099Z,14.57
2022-08-14T00:34:53.693Z,14.47
2022-08-14T00:37:20.965Z,13.97
2022-08-14T00:39:47.516Z,13.47
2022-08-14T00:42:21.355Z,12.63
2022-08-14T00:45:09.930Z,13.00
2022-08-14T00:47:43.232Z,14.17
2022-08-14T00:50:16.707Z,10.30
2022-08-14T00:52:50.957Z,16.23
2022-08-14T00:55:19.940Z,12.17
2022-08-14T00:58:07.543Z,9.87
2022-08-14T01:00:37.354Z,11.20
2022-08-14T01:03:09.995Z,12.83
2022-08-14T01:05:50.953Z,10.97
2022-08-14T01:08:52.301Z,14.40
2022-08-14T01:11:07.868Z,12.53
2022-08-14T01:13:42.610Z,11.27
2022-08-14T01:16:15.112Z,13.20
2022-08-14T01:19:01.373Z,11.50
2022-08-14T01:21:34.881Z,13.20
2022-08-14T01:24:24.734Z,15.10
2022-08-14T01:27:00.131Z,10.30
2022-08-14T01:29:59.094Z,11.93
2022-08-14T01:32:22.888Z,10.13
2022-08-14T01:35:17.301Z,12.40
2022-08-14T01:37:44.510Z,10.83
2022-08-14T01:40:15.528Z,15.63
2022-08-14T01:42:46.881Z,11.07
2022-08-14T01:45:17.921Z,14.67
2022-08-14T01:47:52.582Z,12.57
2022-08-14T01:50:30.658Z,9.93
2022-08-14T01:53:01.238Z,12.27
2022-08-14T01:55:31.907Z,9.67
2022-08-14T01:58:18.524Z,12.30
2022-08-14T02:00:47.851Z,11.47
2022-08-14T02:03:16.114Z,10.10
2022-08-14T02:05:43.555Z,13.57
2022-08-14T02:08:10.662Z,9.67
2022-08-14T02:10:46.603Z,11.00
2022-08-14T02:13:15.984Z,14.77
2022-08-14T02:15:43.694Z,11.07
2022-08-14T02:18:10.559Z,14.07
2022-08-14T02:20:39.991Z,11.20
2022-08-14T02:23:08.186Z,13.20
2022-08-14T02:25:35.506Z,10.63
2022-08-14T02:28:25.075Z,10.97
2022-08-14T02:30:48.674Z,13.63
2022-08-14T02:33:19.573Z,14.13
2022-08-14T02:35:53.359Z,11.70
2022-08-14T02:38:30.005Z,10.70
2022-08-14T02:41:01.064Z,14.70
2022-08-14T02:43:36.584Z,11.67
2022-08-14T02:46:04.185Z,8.40
2022-08-14T02:49:04.970Z,12.83
2022-08-14T02:51:23.525Z,12.90
2022-08-14T02:53:51.857Z,12.63
2022-08-14T02:56:30.224Z,12.20
2022-08-14T02:59:08.480Z,12.77
2022-08-14T03:01:43.468Z,12.17
2022-08-14T03:04:20.176Z,9.00
2022-08-14T03:06:58.043Z,9.43
2022-08-14T03:10:26.437Z,15.80
2022-08-14T03:12:31.500Z,11.30
2022-08-14T03:15:03.207Z,12.20
2022-08-14T03:17:32.109Z,13.77
2022-08-14T03:20:11.105Z,13.07
2022-08-14T03:22:41.846Z,17.57
2022-08-14T03:25:10.629Z,9.23
2022-08-14T03:27:48.556Z,12.77
2022-08-14T03:30:38.906Z,11.77
2022-08-14T03:33:08.404Z,11.67
2022-08-14T03:35:39.850Z,15.53
2022-08-14T03:39:11.640Z,10.03
2022-08-14T03:40:56.774Z,14.80
2022-08-14T03:43:25.445Z,16.47
2022-08-14T03:45:55.435Z,12.43
2022-08-14T03:48:30.145Z,11.00
2022-08-14T03:50:58.049Z,14.30
2022-08-14T03:53:26.283Z,16.30
2022-08-14T03:55:56.108Z,11.93
2022-08-14T03:58:36.731Z,13.87
2022-08-14T04:01:06.466Z,15.53
2022-08-14T04:03:37.385Z,15.47
2022-08-14T04:06:04.995Z,16.90
2022-08-14T04:08:36.982Z,14.13
2022-08-14T04:11:08.011Z,11.77
2022-08-14T04:13:39.586Z,12.80
2022-08-14T04:16:12.647Z,12.27
2022-08-14T04:18:42.527Z,8.20
2022-08-14T04:21:10.492Z,14.77
2022-08-14T04:23:39.788Z,11.57
2022-08-14T04:26:14.232Z,11.80
2022-08-14T04:29:07.590Z,13.30
2022-08-14T04:33:10.489Z,10.77
2022-08-14T04:34:24.065Z,12.63
2022-08-14T04:37:12.807Z,9.80
2022-08-14T04:39:58.839Z,10.17
2022-08-14T04:42:47.272Z,7.90
2022-08-14T04:45:19.743Z,12.33
2022-08-14T04:48:05.557Z,11.90
2022-08-14T04:50:43.862Z,10.77
2022-08-14T04:53:13.880Z,12.37
2022-08-14T04:55:42.895Z,14.50
2022-08-14T04:58:21.951Z,11.20
2022-08-14T05:00:58.097Z,11.53
2022-08-14T05:03:27.629Z,11.70
2022-08-14T05:05:58.117Z,14.87
2022-08-14T05:08:32.155Z,10.03
2022-08-14T05:11:13.470Z,11.40
2022-08-14T05:14:33.065Z,13.87
2022-08-14T05:16:31.639Z,13.53
2022-08-14T05:19:17.602Z,12.53
2022-08-14T05:22:00.580Z,15.23
2022-08-14T05:24:31.668Z,10.83
2022-08-14T05:26:59.341Z,16.60
2022-08-14T05:29:26.387Z,15.40
2022-08-14T05:31:57.319Z,13.83
2022-08-14T05:34:32.052Z,10.13
2022-08-14T05:37:03.224Z,11.93
2022-08-14T05:39:31.136Z,13.80
2022-08-14T05:41:58.401Z,16.97
2022-08-14T05:44:29.589Z,11.70
2022-08-14T05:46:57.370Z,16.30
2022-08-14T05:49:32.681Z,11.80
2022-08-14T05:52:03.895Z,14.27
2022-08-14T05:54:36.539Z,16.53
2022-08-14T05:57:04.965Z,11.90
2022-08-14T05:59:38.657Z,17.17
2022-08-14T06:02:07.795Z,11.43
2022-08-14T06:04:36.906Z,10.97
2022-08-14T06:07:04.328Z,12.83
2022-08-14T06:09:35.524Z,15.57
2022-08-14T06:12:10.601Z,17.30
2022-08-14T06:14:38.889Z,15.30
2022-08-14T06:17:05.982Z,15.67
2022-08-14T06:19:33.096Z,18.97
2022-08-14T06:21:59.941Z,16.90
2022-08-14T06:24:27.604Z,15.73
2022-08-14T06:27:04.517Z,15.80
2022-08-14T06:29:34.959Z,14.00
2022-08-14T06:32:36.547Z,16.67
2022-08-14T06:35:10.769Z,14.90
2022-08-14T06:37:46.895Z,18.10
2022-08-14T06:40:27.183Z,18.40
2022-08-14T06:43:00.549Z,15.77
2022-08-14T06:45:31.387Z,18.23
2022-08-14T06:47:58.792Z,16.27
2022-08-14T06:50:28.713Z,15.63
2022-08-14T06:52:58.535Z,14.37
2022-08-14T06:55:28.106Z,18.83
2022-08-14T06:57:56.519Z,15.00
2022-08-14T07:00:30.972Z,17.57
2022-08-14T07:03:17.170Z,18.03
2022-08-14T07:05:55.650Z,16.27
2022-08-14T07:08:31.095Z,20.67
2022-08-14T07:11:04.232Z,19.00
2022-08-14T07:13:31.183Z,16.77
2022-08-14T07:15:58.929Z,22.30
2022-08-14T07:18:29.208Z,16.80
2022-08-14T07:20:57.462Z,14.27
2022-08-14T07:23:25.811Z,14.80
2022-08-14T07:25:55.355Z,12.80
2022-08-14T07:28:43.361Z,12.97
2022-08-14T07:31:12.283Z,13.27
2022-08-14T07:33:46.666Z,14.83
2022-08-14T07:36:27.274Z,15.30
2022-08-14T07:39:00.942Z,20.27
2022-08-14T07:41:31.282Z,13.15
2022-08-14T07:44:22.425Z,15.82
2022-08-14T07:46:47.936Z,15.18
2022-08-14T07:49:17.921Z,15.77
2022-08-14T07:51:45.323Z,12.80
2022-08-14T07:54:12.388Z,13.30
2022-08-14T07:56:47.510Z,15.52
2022-08-14T07:59:16.940Z,11.98
2022-08-14T08:01:51.171Z,12.68
2022-08-14T08:04:25.196Z,14.13
2022-08-14T08:06:53.758Z,14.03
2022-08-14T08:09:32.097Z,18.90
2022-08-14T08:12:05.062Z,15.47
2022-08-14T08:14:55.538Z,16.83
2022-08-14T08:17:25.616Z,13.77
2022-08-14T08:19:52.392Z,16.27
2022-08-14T08:22:21.280Z,17.23
2022-08-14T08:24:50.817Z,16.13
2022-08-14T08:27:19.930Z,16.60
2022-08-14T08:29:50.786Z,14.03
2022-08-14T08:32:18.507Z,16.67
2022-08-14T08:34:46.364Z,14.13
2022-08-14T08:37:14.751Z,18.73
2022-08-14T08:40:03.305Z,15.23
2022-08-14T08:42:38.250Z,18.07
2022-08-14T08:45:06.243Z,16.70
2022-08-14T08:47:40.409Z,19.00
2022-08-14T08:50:23.237Z,18.90
2022-08-14T08:53:02.049Z,20.00
2022-08-14T08:55:31.825Z,17.80
2022-08-14T08:58:05.441Z,18.43
2022-08-14T09:00:40.986Z,17.37
2022-08-14T09:03:12.307Z,16.23
2022-08-14T09:06:54.022Z,22.30
2022-08-14T09:08:55.728Z,19.73
2022-08-14T09:11:24.578Z,21.00
2022-08-14T09:13:52.645Z,21.60
2022-08-14T09:16:25.867Z,18.57
2022-08-14T09:18:53.932Z,19.20
2022-08-14T09:21:24.047Z,16.90
2022-08-14T09:24:29.325Z,15.50
2022-08-14T09:26:42.395Z,15.13
2022-08-14T09:29:11.471Z,13.73
2022-08-14T09:31:53.462Z,21.83
2022-08-14T09:34:27.961Z,15.20
2022-08-14T09:37:27.377Z,15.83
2022-08-14T09:40:20.939Z,18.80
2022-08-14T09:43:05.414Z,17.50
2022-08-14T09:45:40.280Z,16.57
2022-08-14T09:48:29.837Z,16.37
2022-08-14T09:54:17.921Z,17.20
2022-08-14T09:56:45.855Z,18.53
2022-08-14T09:59:16.167Z,21.33
2022-08-14T10:01:52.769Z,18.27
2022-08-14T10:04:33.745Z,18.50
2022-08-14T10:07:08.422Z,17.10
2022-08-14T10:10:00.023Z,20.27
2022-08-14T10:12:53.163Z,23.27
2022-08-14T10:15:25.951Z,18.10
2022-08-14T10:18:17.326Z,17.30
2022-08-14T10:21:01.038Z,19.77
2022-08-14T10:23:34.954Z,22.48
2022-08-14T10:26:07.240Z,18.20
2022-08-14T10:29:14.196Z,20.13
2022-08-14T10:31:40.187Z,19.40
2022-08-14T10:34:16.263Z,20.57
2022-08-14T10:36:48.094Z,17.27
2022-08-14T10:39:22.067Z,20.50
2022-08-14T10:41:53.786Z,17.80
2022-08-14T10:44:29.664Z,18.40
2022-08-14T10:47:41.474Z,22.35
2022-08-14T10:50:00.123Z,17.38
2022-08-14T10:52:33.891Z,21.90
2022-08-14T10:55:15.467Z,16.70
2022-08-14T10:57:57.495Z,17.30
2022-08-14T11:00:35.572Z,17.77
2022-08-14T11:03:15.741Z,16.95
2022-08-14T11:05:55.727Z,15.83
2022-08-14T11:08:35.445Z,23.87
2022-08-14T11:11:05.621Z,19.43
2022-08-14T11:13:34.932Z,19.03
2022-08-14T11:16:02.477Z,15.63
2022-08-14T11:18:40.197Z,21.80
2022-08-14T11:21:08.428Z,16.90
2022-08-14T11:23:39.882Z,20.53
2022-08-14T11:26:10.805Z,20.55
2022-08-14T11:28:48.144Z,18.10
2022-08-14T11:31:22.107Z,21.50
2022-08-14T11:33:58.192Z,17.47
2022-08-14T11:36:35.444Z,20.80
2022-08-14T11:39:34.495Z,20.40
2022-08-14T11:42:55.463Z,17.67
2022-08-14T11:45:11.148Z,17.17
2022-08-14T11:48:12.816Z,15.40
2022-08-14T11:50:37.630Z,17.85
2022-08-14T11:53:20.207Z,17.97
2022-08-14T11:55:46.955Z,18.58
2022-08-14T11:58:23.812Z,15.88
2022-08-14T12:00:53.881Z,20.42
2022-08-14T12:03:37.356Z,23.27
2022-08-14T12:06:27.851Z,24.73
2022-08-14T12:08:56.874Z,18.67
2022-08-14T12:11:44.105Z,19.73
2022-08-14T12:14:30.798Z,25.17
2022-08-14T12:17:11.751Z,22.67
2022-08-14T12:19:51.555Z,18.33
2022-08-14T12:22:33.953Z,17.27
2022-08-14T12:25:01.789Z,20.03
2022-08-14T12:27:59.226Z,22.40
2022-08-14T12:30:43.052Z,17.25
2022-08-14T12:33:35.331Z,20.40
2022-08-14T12:36:07.968Z,18.60
2022-08-14T12:38:43.712Z,16.33
2022-08-14T12:41:22.155Z,19.15
2022-08-14T12:44:01.905Z,19.57
2022-08-14T12:46:43.711Z,20.05
2022-08-14T12:49:16.419Z,17.83
2022-08-14T12:51:44.300Z,18.67
2022-08-14T12:54:27.052Z,18.20
2022-08-14T12:57:04.237Z,18.77
2022-08-14T12:59:37.279Z,18.13
2022-08-14T13:02:25.991Z,19.17
2022-08-14T13:04:55.951Z,19.90
2022-08-14T13:07:24.267Z,25.42
2022-08-14T13:10:00.165Z,16.48
2022-08-14T13:12:32.555Z,20.33
2022-08-14T13:15:18.211Z,19.02
2022-08-14T13:17:52.113Z,19.75
2022-08-14T13:20:26.564Z,19.67
2022-08-14T13:22:56.236Z,18.58
2022-08-14T13:25:25.926Z,16.53
2022-08-14T13:27:55.203Z,17.10
2022-08-14T13:30:24.966Z,22.73
2022-08-14T13:32:53.786Z,20.55
2022-08-14T13:35:22.682Z,19.33
2022-08-14T13:37:52.313Z,19.23
2022-08-14T13:40:26.529Z,17.97
2022-08-14T13:42:56.651Z,18.65
2022-08-14T13:45:33.629Z,16.90
2022-08-14T13:48:27.692Z,20.55
2022-08-14T13:50:59.276Z,16.48
2022-08-14T13:53:33.324Z,22.47
2022-08-14T13:56:00.514Z,23.13
2022-08-14T13:58:30.260Z,17.95
2022-08-14T14:01:00.837Z,17.80
2022-08-14T14:03:30.251Z,18.67
2022-08-14T14:05:58.920Z,21.50
2022-08-14T14:08:45.675Z,16.67
2022-08-14T14:11:16.059Z,19.23
2022-08-14T14:13:45.683Z,16.97
2022-08-14T14:16:15.535Z,15.63
2022-08-14T14:18:56.359Z,19.63
2022-08-14T14:21:28.744Z,14.60
2022-08-14T14:23:56.394Z,18.98
2022-08-14T14:26:24.717Z,18.73
2022-08-14T14:28:56.482Z,19.07
2022-08-14T14:31:29.579Z,13.93
2022-08-14T14:34:00.966Z,13.27
2022-08-14T14:36:35.565Z,18.80
2022-08-14T14:39:05.590Z,12.63
2022-08-14T14:41:38.554Z,20.53
2022-08-14T14:44:16.483Z,18.17
2022-08-14T14:46:50.782Z,16.27
2022-08-14T14:49:31.935Z,17.08
2022-08-14T14:52:17.172Z,16.73
2022-08-14T14:54:50.369Z,15.40
2022-08-14T14:57:18.587Z,16.20
2022-08-14T14:59:50.016Z,16.08
2022-08-14T15:02:29.234Z,19.67
2022-08-14T15:04:56.349Z,16.58
2022-08-14T15:07:23.205Z,16.60
2022-08-14T15:09:50.003Z,18.83
2022-08-14T15:12:56.571Z,19.60
2022-08-14T15:15:08.505Z,18.57
2022-08-14T15:17:41.668Z,19.77
2022-08-14T15:20:30.145Z,16.33
2022-08-14T15:23:11.856Z,15.63
2022-08-14T15:25:41.032Z,18.33
2022-08-14T15:28:11.671Z,17.98
2022-08-14T15:30:44.232Z,15.37
2022-08-14T15:33:14.258Z,19.17
2022-08-14T15:35:44.957Z,21.75
2022-08-14T15:38:17.538Z,19.90
2022-08-14T15:40:44.633Z,21.97
2022-08-14T15:43:23.239Z,18.80
2022-08-14T15:45:54.769Z,22.17
2022-08-14T15:48:23.320Z,16.67
2022-08-14T15:50:50.951Z,22.00
2022-08-14T15:53:18.325Z,17.23
2022-08-14T15:55:46.588Z,19.03
2022-08-14T15:58:14.714Z,15.67
2022-08-14T16:00:59.985Z,20.43
2022-08-14T16:03:37.178Z,18.97
2022-08-14T16:06:15.718Z,17.43
2022-08-14T16:08:46.433Z,18.57
2022-08-14T16:11:17.097Z,18.42
2022-08-14T16:13:45.211Z,16.90
2022-08-14T16:16:47.587Z,18.57
2022-08-14T16:19:10.045Z,16.50
2022-08-14T16:21:40.316Z,19.73
2022-08-14T16:24:27.076Z,17.30
2022-08-14T16:27:00.664Z,22.27
2022-08-14T16:29:30.166Z,16.63
2022-08-14T16:31:59.052Z,22.60
2022-08-14T16:34:44.118Z,20.63
2022-08-14T16:37:13.253Z,19.30
2022-08-14T16:39:41.899Z,21.47
2022-08-14T16:42:38.360Z,19.50
2022-08-14T16:44:58.224Z,19.43
2022-08-14T16:47:25.326Z,18.67
2022-08-14T16:50:04.311Z,18.87
2022-08-14T16:52:44.216Z,15.97
2022-08-14T16:55:13.895Z,23.57
2022-08-14T16:57:54.316Z,23.13
2022-08-14T17:00:44.274Z,17.10
2022-08-14T17:03:18.186Z,32.93
2022-08-14T17:05:46.849Z,28.63
2022-08-14T17:08:32.995Z,27.43
2022-08-14T17:11:10.139Z,19.33
2022-08-14T17:13:59.591Z,22.13
2022-08-14T17:16:37.401Z,28.80
2022-08-14T17:19:05.849Z,19.20
2022-08-14T17:21:41.770Z,17.40
2022-08-14T17:24:56.449Z,21.23
2022-08-14T17:27:03.871Z,21.93
2022-08-14T17:29:34.943Z,19.73
2022-08-14T17:32:27.986Z,22.80
2022-08-14T17:37:46.199Z,27.73
2022-08-14T17:40:19.530Z,25.63
2022-08-14T17:42:51.829Z,26.80
2022-08-14T17:45:43.686Z,23.60
2022-08-14T17:49:10.877Z,29.77
2022-08-14T17:51:23.238Z,22.50
2022-08-14T17:53:53.363Z,21.03
2022-08-14T17:56:20.954Z,25.00
2022-08-14T17:58:49.349Z,23.73
2022-08-14T18:01:17.439Z,28.63
2022-08-14T18:03:53.603Z,23.30
2022-08-14T18:06:39.552Z,27.37
2022-08-14T18:09:26.087Z,22.90
2022-08-14T18:11:57.925Z,22.23
2022-08-14T18:14:32.620Z,25.30
2022-08-14T18:17:13.676Z,27.40
2022-08-14T18:19:45.085Z,22.60
2022-08-14T18:22:24.058Z,21.47
2022-08-14T18:24:59.398Z,28.07
2022-08-14T18:27:43.872Z,31.60
2022-08-14T18:30:33.282Z,24.20
2022-08-14T18:32:59.699Z,25.83
2022-08-14T18:35:59.080Z,21.27
2022-08-14T18:38:46.107Z,20.27
2022-08-14T18:41:36.224Z,14.10
2022-08-14T18:44:10.634Z,18.77
2022-08-14T18:47:10.024Z,21.03
2022-08-14T18:50:26.406Z,14.90
2022-08-14T18:52:53.346Z,14.43
2022-08-14T18:55:20.958Z,14.53
2022-08-14T18:58:27.548Z,18.40
2022-08-14T19:00:56.245Z,19.43
2022-08-14T19:03:37.125Z,15.37
2022-08-14T19:06:07.005Z,14.87
2022-08-14T19:08:47.036Z,14.80
2022-08-14T19:11:32.414Z,17.57
2022-08-14T19:14:04.714Z,19.23
2022-08-14T19:16:34.865Z,16.90
2022-08-14T19:19:04.361Z,20.13
2022-08-14T19:21:43.553Z,16.50
2022-08-14T19:24:27.494Z,17.03
2022-08-14T19:27:19.463Z,17.57
2022-08-14T19:29:51.068Z,17.07
2022-08-14T19:32:36.491Z,21.63
2022-08-14T19:35:17.004Z,14.33
2022-08-14T19:37:55.202Z,20.93
2022-08-14T19:40:34.560Z,17.10
2022-08-14T19:43:06.525Z,20.80
2022-08-14T19:45:37.048Z,23.07
2022-08-14T19:48:10.529Z,23.97
2022-08-14T19:50:41.318Z,23.77
2022-08-14T19:53:17.304Z,20.73
2022-08-14T19:55:54.929Z,21.70
2022-08-14T19:58:28.004Z,18.50
2022-08-14T20:00:57.281Z,17.53
2022-08-14T20:03:24.871Z,16.13
2022-08-14T20:06:05.331Z,19.47
2022-08-14T20:10:58.500Z,19.77
2022-08-14T20:11:58.591Z,23.30
2022-08-14T20:14:29.639Z,17.00
2022-08-14T20:17:05.527Z,22.63
2022-08-14T20:19:38.044Z,22.20
2022-08-14T20:22:36.225Z,23.03
2022-08-14T20:25:11.644Z,18.57
2022-08-14T20:27:41.055Z,17.80
2022-08-14T20:30:33.567Z,24.03
2022-08-14T20:33:07.687Z,18.37
2022-08-14T20:35:43.665Z,20.07
2022-08-14T20:38:31.189Z,21.57
2022-08-14T20:41:09.486Z,21.30
2022-08-14T20:43:59.417Z,21.23
2022-08-14T20:46:31.858Z,19.93
2022-08-14T20:48:59.621Z,16.20
2022-08-14T20:51:43.385Z,21.00
2022-08-14T20:54:21.563Z,17.03
2022-08-14T20:57:43.644Z,19.13
2022-08-14T21:00:12.041Z,16.27
2022-08-14T21:02:50.012Z,19.57
2022-08-14T21:05:22.515Z,22.00
2022-08-14T21:08:07.877Z,18.97
2022-08-14T21:10:44.106Z,19.00
2022-08-14T21:14:09.074Z,18.80
2022-08-14T21:16:03.058Z,19.33
2022-08-14T21:18:35.172Z,21.90
2022-08-14T21:21:18.076Z,20.57
2022-08-14T21:23:54.962Z,19.10
2022-08-14T21:26:51.201Z,17.70
2022-08-14T21:29:11.387Z,17.93
2022-08-14T21:31:38.965Z,23.93
2022-08-14T21:34:27.528Z,17.30
2022-08-14T21:36:54.632Z,21.80
2022-08-14T21:39:24.347Z,22.73
2022-08-14T21:41:58.421Z,20.70
2022-08-14T21:44:42.600Z,19.30
2022-08-14T21:47:10.143Z,25.07
2022-08-14T21:49:39.096Z,19.47
2022-08-14T21:52:51.904Z,20.23
2022-08-14T21:55:01.922Z,24.20
2022-08-14T21:58:46.371Z,25.60
2022-08-14T22:00:36.695Z,26.00
2022-08-14T22:03:09.829Z,17.87
2022-08-14T22:05:39.096Z,20.67
2022-08-14T22:08:06.692Z,23.27
2022-08-14T22:10:35.014Z,21.10
2022-08-14T22:13:02.106Z,24.17
2022-08-14T22:15:29.916Z,23.43
2022-08-14T22:17:57.759Z,21.90
2022-08-14T22:20:28.768Z,26.20
2022-08-14T22:22:56.912Z,21.80
2022-08-14T22:25:33.330Z,23.57
2022-08-14T22:28:01.610Z,24.70
2022-08-14T22:30:28.145Z,25.17
2022-08-14T22:32:56.825Z,24.33
2022-08-14T22:35:25.568Z,23.07
2022-08-14T22:38:36.549Z,22.50
2022-08-14T22:41:14.885Z,21.47
2022-08-14T22:43:27.568Z,20.27
2022-08-14T22:45:58.272Z,21.47
2022-08-14T22:48:29.696Z,19.30
2022-08-14T22:50:56.336Z,22.07
2022-08-14T22:53:24.072Z,20.87
2022-08-14T22:55:56.686Z,22.10
2022-08-14T22:58:31.440Z,19.13
2022-08-14T23:01:01.041Z,23.80
2022-08-14T23:03:27.693Z,21.40
2022-08-14T23:05:55.531Z,27.60
2022-08-14T23:08:59.739Z,23.60
2022-08-14T23:11:10.335Z,26.93
2022-08-14T23:13:39.171Z,28.60
2022-08-14T23:16:06.887Z,24.97
2022-08-14T23:18:34.561Z,25.43
2022-08-14T23:21:01.577Z,30.93
2022-08-14T23:23:28.049Z,25.20
2022-08-14T23:26:00.265Z,27.13
2022-08-14T23:28:58.104Z,23.10
2022-08-14T23:31:34.346Z,27.03
2022-08-14T23:34:06.752Z,25.23
2022-08-14T23:36:37.853Z,26.40
2022-08-14T23:39:21.061Z,28.77
2022-08-14T23:41:52.698Z,27.10
2022-08-14T23:44:22.129Z,23.67
2022-08-14T23:46:49.535Z,26.63
2022-08-14T23:49:21.259Z,30.37
2022-08-14T23:52:49.444Z,28.13
2022-08-14T23:54:49.379Z,28.30
2022-08-14T23:57:19.339Z,29.47
2022-08-14T23:59:54.696Z,25.97
